createdAt,value
2018-12-05T00:01:09.752Z,3.90
2018-12-05T00:03:37.211Z,4.70
2018-12-05T00:06:04.669Z,4.57
2018-12-05T00:08:32.215Z,5.90
2018-12-05T00:10:59.743Z,4.63
2018-12-05T00:13:27.265Z,5.37
2018-12-05T00:15:55.014Z,3.60
2018-12-05T00:18:22.549Z,4.37
2018-12-05T00:20:50.133Z,4.00
2018-12-05T00:23:17.691Z,4.40
2018-12-05T00:25:45.180Z,6.03
2018-12-05T00:28:12.685Z,5.40
2018-12-05T00:30:40.177Z,3.43
2018-12-05T00:33:07.657Z,6.37
2018-12-05T00:35:35.273Z,5.33
2018-12-05T00:38:02.732Z,3.47
2018-12-05T00:40:30.314Z,4.90
2018-12-05T00:42:57.771Z,5.17
2018-12-05T00:45:25.359Z,4.97
2018-12-05T00:47:52.864Z,4.07
2018-12-05T00:50:20.392Z,4.37
2018-12-05T00:52:47.842Z,4.23
2018-12-05T00:55:15.548Z,4.37
2018-12-05T00:57:43.180Z,4.87
2018-12-05T01:00:11.152Z,4.50
2018-12-05T01:02:38.759Z,4.77
2018-12-05T01:05:07.869Z,3.70
2018-12-05T01:07:35.570Z,4.07
2018-12-05T01:10:03.481Z,3.70
2018-12-05T01:12:31.016Z,5.10
2018-12-05T01:14:59.175Z,5.00
2018-12-05T01:17:26.760Z,5.57
2018-12-05T01:19:54.206Z,5.03
2018-12-05T01:22:21.791Z,5.17
2018-12-05T01:24:49.302Z,4.10
2018-12-05T01:27:16.861Z,5.50
2018-12-05T01:29:44.339Z,4.93
2018-12-05T01:32:11.919Z,5.00
2018-12-05T01:34:39.486Z,5.83
2018-12-05T01:37:07.215Z,4.97
2018-12-05T01:39:34.695Z,4.10
2018-12-05T01:42:02.127Z,5.80
2018-12-05T01:44:29.692Z,4.43
2018-12-05T01:46:57.157Z,4.97
2018-12-05T01:49:24.649Z,5.37
2018-12-05T01:51:52.194Z,5.00
2018-12-05T01:54:19.784Z,4.70
2018-12-05T01:56:47.313Z,4.80
2018-12-05T01:59:14.974Z,4.90
2018-12-05T02:01:42.550Z,6.30
2018-12-05T02:07:00.478Z,4.97
2018-12-05T02:09:40.536Z,5.17
2018-12-05T02:12:11.184Z,5.33
2018-12-05T02:17:29.010Z,5.57
2018-12-05T02:25:55.425Z,6.70
2018-12-05T02:34:16.291Z,7.13
2018-12-05T02:36:49.838Z,5.87
2018-12-05T02:39:23.144Z,6.70
2018-12-05T02:41:56.446Z,5.87
2018-12-05T02:44:23.983Z,7.13
2018-12-05T02:46:51.444Z,6.17
2018-12-05T02:49:22.987Z,7.40
2018-12-05T02:51:53.757Z,6.57
2018-12-05T02:54:34.537Z,6.83
2018-12-05T02:57:05.962Z,6.80
2018-12-05T02:59:41.083Z,6.50
2018-12-05T03:05:32.247Z,6.87
2018-12-05T03:08:03.533Z,6.50
2018-12-05T03:10:33.011Z,6.20
2018-12-05T03:13:06.202Z,7.70
2018-12-05T03:15:39.902Z,6.93
2018-12-05T03:18:10.998Z,7.67
2018-12-05T03:20:44.102Z,6.40
2018-12-05T03:39:18.905Z,6.70
2018-12-05T03:45:06.897Z,7.20
2018-12-05T03:47:41.439Z,6.90
2018-12-05T03:50:12.321Z,7.10
2018-12-05T03:52:45.763Z,6.13
2018-12-05T03:55:25.436Z,6.40
2018-12-05T03:58:05.224Z,6.60
2018-12-05T04:00:36.822Z,6.73
2018-12-05T04:03:07.602Z,6.50
2018-12-05T04:05:38.336Z,7.30
2018-12-05T04:08:11.467Z,6.77
2018-12-05T04:10:49.270Z,7.40
2018-12-05T04:16:15.683Z,7.37
2018-12-05T04:18:48.983Z,7.17
2018-12-05T04:21:20.310Z,7.20
2018-12-05T04:23:55.994Z,7.23
2018-12-05T04:26:23.581Z,6.83
2018-12-05T04:28:51.132Z,6.63
2018-12-05T04:31:18.601Z,7.30
2018-12-05T04:33:46.097Z,6.93
2018-12-05T04:36:13.605Z,7.03
2018-12-05T04:38:41.131Z,7.27
2018-12-05T04:41:08.573Z,7.23
2018-12-05T04:43:36.125Z,7.47
2018-12-05T04:46:03.624Z,8.10
2018-12-05T04:48:31.218Z,7.77
2018-12-05T04:50:58.634Z,7.60
2018-12-05T04:53:26.168Z,6.60
2018-12-05T04:55:53.767Z,7.10
2018-12-05T04:58:21.233Z,7.33
2018-12-05T05:00:48.791Z,7.23
2018-12-05T05:03:16.341Z,7.73
2018-12-05T05:05:43.835Z,7.97
2018-12-05T05:08:11.262Z,7.77
2018-12-05T05:10:38.719Z,8.07
2018-12-05T05:13:06.218Z,7.20
2018-12-05T05:15:33.708Z,7.33
2018-12-05T05:18:01.330Z,7.70
2018-12-05T05:20:29.089Z,7.70
2018-12-05T05:22:56.595Z,8.63
2018-12-05T05:25:24.255Z,8.00
2018-12-05T05:27:51.787Z,7.50
2018-12-05T05:30:19.275Z,8.80
2018-12-05T05:32:51.623Z,8.10
2018-12-05T05:35:19.107Z,7.93
2018-12-05T05:37:46.819Z,8.23
2018-12-05T05:40:14.254Z,7.83
2018-12-05T05:42:41.891Z,7.67
2018-12-05T05:45:09.429Z,9.33
2018-12-05T05:47:36.855Z,9.03
2018-12-05T05:50:04.777Z,8.30
2018-12-05T05:52:32.336Z,8.30
2018-12-05T05:54:59.870Z,9.30
2018-12-05T05:57:27.332Z,9.77
2018-12-05T05:59:54.752Z,9.37
2018-12-05T06:02:22.192Z,9.80
2018-12-05T06:04:49.795Z,10.63
2018-12-05T06:07:17.264Z,10.53
2018-12-05T06:09:44.822Z,9.60
2018-12-05T06:12:12.398Z,10.47
2018-12-05T06:14:39.912Z,10.00
2018-12-05T06:17:07.464Z,10.20
2018-12-05T06:19:35.068Z,10.53
2018-12-05T06:22:04.386Z,10.67
2018-12-05T06:24:37.599Z,10.47
2018-12-05T06:27:10.953Z,9.77
2018-12-05T06:32:33.636Z,10.10
2018-12-05T06:35:01.194Z,10.37
2018-12-05T06:37:28.722Z,10.70
2018-12-05T06:39:56.237Z,9.77
2018-12-05T06:42:23.673Z,10.57
2018-12-05T06:44:51.186Z,10.83
2018-12-05T06:47:18.758Z,10.63
2018-12-05T06:49:46.213Z,10.63
2018-12-05T06:52:13.672Z,10.47
2018-12-05T06:54:41.166Z,10.63
2018-12-05T06:57:08.818Z,10.50
2018-12-05T06:59:36.435Z,11.17
2018-12-05T07:02:04.011Z,10.17
2018-12-05T07:04:31.586Z,10.93
2018-12-05T07:06:59.329Z,11.33
2018-12-05T07:09:26.851Z,10.27
2018-12-05T07:11:54.293Z,10.27
2018-12-05T07:14:21.841Z,11.03
2018-12-05T07:16:49.587Z,10.57
2018-12-05T07:19:17.117Z,10.00
2018-12-05T07:21:44.638Z,10.80
2018-12-05T07:24:12.200Z,11.23
2018-12-05T07:26:39.679Z,11.40
2018-12-05T07:29:07.204Z,10.47
2018-12-05T07:31:34.802Z,11.77
2018-12-05T07:34:02.231Z,11.37
2018-12-05T07:36:30.229Z,10.10
2018-12-05T07:38:57.796Z,10.87
2018-12-05T07:41:25.269Z,9.80
2018-12-05T07:43:52.800Z,10.30
2018-12-05T07:46:20.370Z,9.90
2018-12-05T07:48:47.899Z,9.93
2018-12-05T07:51:15.368Z,11.00
2018-12-05T07:53:42.903Z,9.57
2018-12-05T07:56:10.356Z,10.07
2018-12-05T07:58:37.938Z,10.43
2018-12-05T08:01:05.744Z,10.40
2018-12-05T08:03:36.591Z,9.33
2018-12-05T08:06:04.303Z,10.70
2018-12-05T08:08:31.866Z,10.03
2018-12-05T08:10:59.350Z,10.93
2018-12-05T08:13:26.854Z,10.47
2018-12-05T08:15:54.361Z,10.07
2018-12-05T08:18:22.132Z,9.13
2018-12-05T08:20:49.792Z,8.97
2018-12-05T08:23:17.301Z,10.60
2018-12-05T08:25:45.021Z,9.87
2018-12-05T08:28:12.624Z,9.60
2018-12-05T08:30:40.437Z,8.93
2018-12-05T08:33:08.079Z,9.50
2018-12-05T08:35:35.541Z,10.33
2018-12-05T08:38:03.235Z,10.53
2018-12-05T08:40:30.783Z,10.63
2018-12-05T08:42:58.387Z,9.73
2018-12-05T08:45:25.879Z,10.03
2018-12-05T08:47:53.425Z,9.60
2018-12-05T08:50:21.221Z,9.53
2018-12-05T08:52:48.642Z,9.47
2018-12-05T08:55:16.142Z,10.27
2018-12-05T08:57:43.676Z,9.47
2018-12-05T09:00:11.223Z,9.57
2018-12-05T09:02:40.024Z,9.33
2018-12-05T09:05:08.410Z,8.60
2018-12-05T09:07:36.037Z,8.80
2018-12-05T09:10:03.719Z,9.43
2018-12-05T09:12:31.469Z,8.40
2018-12-05T09:14:59.557Z,8.73
2018-12-05T09:17:27.296Z,8.43
2018-12-05T09:19:54.932Z,8.83
2018-12-05T09:22:22.418Z,9.20
2018-12-05T09:24:49.964Z,8.03
2018-12-05T09:27:17.440Z,7.93
2018-12-05T09:29:44.914Z,7.80
2018-12-05T09:32:12.436Z,7.97
2018-12-05T09:34:40.060Z,8.03
2018-12-05T09:37:07.525Z,8.47
2018-12-05T09:39:35.239Z,7.93
2018-12-05T09:42:02.790Z,7.70
2018-12-05T09:44:31.382Z,7.67
2018-12-05T09:46:58.862Z,7.43
2018-12-05T09:49:26.369Z,7.50
2018-12-05T09:51:53.986Z,8.30
2018-12-05T09:54:21.496Z,8.07
2018-12-05T09:56:49.196Z,7.60
2018-12-05T09:59:16.828Z,7.40
2018-12-05T10:01:44.380Z,7.23
2018-12-05T10:04:11.980Z,7.73
2018-12-05T10:06:39.842Z,8.57
2018-12-05T10:09:17.661Z,8.53
2018-12-05T10:11:45.695Z,7.43
2018-12-05T10:14:13.217Z,7.03
2018-12-05T10:16:41.038Z,7.53
2018-12-05T10:19:08.581Z,7.77
2018-12-05T10:21:36.086Z,7.93
2018-12-05T10:24:03.799Z,7.13
2018-12-05T10:26:31.309Z,6.83
2018-12-05T10:28:58.915Z,6.80
2018-12-05T10:31:26.486Z,9.73
2018-12-05T10:33:53.936Z,7.43
2018-12-05T10:36:21.588Z,7.10
2018-12-05T10:38:49.151Z,8.23
2018-12-05T10:41:16.792Z,6.93
2018-12-05T10:43:44.218Z,7.30
2018-12-05T10:46:11.736Z,7.17
2018-12-05T10:48:40.608Z,7.90
2018-12-05T10:56:54.127Z,6.97
2018-12-05T10:59:21.727Z,6.03
2018-12-05T11:02:11.443Z,6.80
2018-12-05T11:04:44.701Z,6.63
2018-12-05T11:08:17.460Z,6.77
2018-12-05T11:10:50.576Z,6.60
2018-12-05T11:14:21.765Z,6.70
2018-12-05T11:16:53.768Z,6.43
2018-12-05T11:19:26.909Z,6.63
2018-12-05T11:22:00.074Z,7.83
2018-12-05T11:24:32.751Z,6.83
2018-12-05T11:27:00.158Z,6.90
2018-12-05T11:29:27.616Z,6.87
2018-12-05T11:31:55.088Z,7.10
2018-12-05T11:34:22.500Z,6.60
2018-12-05T11:36:50.034Z,8.07
2018-12-05T11:39:17.422Z,6.77
2018-12-05T11:41:44.876Z,6.37
2018-12-05T11:44:12.282Z,7.00
2018-12-05T11:46:39.772Z,6.80
2018-12-05T11:49:07.167Z,7.27
2018-12-05T11:51:34.647Z,6.70
2018-12-05T11:54:02.085Z,7.47
2018-12-05T11:56:29.530Z,7.43
2018-12-05T11:58:56.978Z,6.57
2018-12-05T12:01:24.443Z,6.90
2018-12-05T12:03:52.042Z,6.67
2018-12-05T12:06:19.468Z,7.60
2018-12-05T12:08:47.177Z,7.30
2018-12-05T12:11:14.752Z,7.47
2018-12-05T12:13:42.173Z,8.37
2018-12-05T12:16:09.928Z,7.50
2018-12-05T12:18:37.346Z,7.23
2018-12-05T12:21:04.790Z,7.17
2018-12-05T12:23:32.211Z,7.73
2018-12-05T12:25:59.630Z,7.77
2018-12-05T12:28:27.050Z,7.70
2018-12-05T12:30:54.472Z,7.97
2018-12-05T12:33:22.011Z,7.90
2018-12-05T12:35:49.381Z,7.70
2018-12-05T12:38:16.838Z,7.47
2018-12-05T12:40:44.275Z,7.23
2018-12-05T12:43:12.129Z,7.70
2018-12-05T12:45:40.568Z,7.43
2018-12-05T12:48:08.158Z,7.10
2018-12-05T12:50:36.646Z,7.57
2018-12-05T12:53:04.947Z,7.17
2018-12-05T12:55:32.564Z,6.80
2018-12-05T12:58:00.661Z,7.47
2018-12-05T13:00:30.241Z,7.37
2018-12-05T13:02:57.786Z,7.53
2018-12-05T13:05:26.378Z,8.40
2018-12-05T13:07:53.833Z,7.37
2018-12-05T13:10:21.356Z,8.40
2018-12-05T13:12:51.431Z,7.07
2018-12-05T13:15:18.953Z,7.13
2018-12-05T13:17:46.394Z,7.50
2018-12-05T13:20:14.630Z,8.33
2018-12-05T13:22:42.101Z,6.90
2018-12-05T13:25:09.545Z,7.40
2018-12-05T13:27:37.039Z,8.10
2018-12-05T13:30:08.935Z,7.37
2018-12-05T13:32:38.061Z,7.77
2018-12-05T13:35:06.685Z,6.97
2018-12-05T13:37:34.298Z,7.67
2018-12-05T13:40:01.786Z,7.80
2018-12-05T13:42:30.053Z,7.80
2018-12-05T13:44:57.591Z,8.10
2018-12-05T13:47:31.754Z,7.47
2018-12-05T13:49:59.980Z,8.17
2018-12-05T13:52:27.478Z,7.87
2018-12-05T13:54:54.957Z,7.60
2018-12-05T13:57:22.975Z,7.47
2018-12-05T13:59:52.599Z,8.90
2018-12-05T14:02:25.383Z,7.90
2018-12-05T14:04:52.855Z,8.03
2018-12-05T14:07:20.338Z,7.47
2018-12-05T14:09:47.756Z,7.33
2018-12-05T14:12:23.549Z,7.47
2018-12-05T14:14:51.035Z,7.77
2018-12-05T14:17:18.566Z,7.90
2018-12-05T14:19:46.081Z,7.70
2018-12-05T14:22:13.536Z,9.00
2018-12-05T14:24:41.656Z,8.60
2018-12-05T14:27:09.148Z,8.17
2018-12-05T14:29:37.542Z,7.63
2018-12-05T14:32:04.951Z,7.83
2018-12-05T14:34:32.411Z,7.57
2018-12-05T14:36:59.843Z,7.80
2018-12-05T14:39:28.191Z,8.77
2018-12-05T14:41:55.763Z,7.70
2018-12-05T14:44:23.241Z,8.00
2018-12-05T14:46:51.362Z,6.90
2018-12-05T14:49:18.766Z,7.83
2018-12-05T14:51:46.246Z,7.87
2018-12-05T14:54:19.464Z,7.80
2018-12-05T14:56:46.945Z,6.80
2018-12-05T14:59:17.050Z,7.87
2018-12-05T15:01:45.121Z,7.60
2018-12-05T15:04:14.079Z,8.00
2018-12-05T15:06:41.547Z,8.10
2018-12-05T15:09:09.080Z,8.30
2018-12-05T15:11:36.689Z,7.50
2018-12-05T15:14:04.269Z,7.57
2018-12-05T15:16:31.706Z,7.30
2018-12-05T15:18:59.316Z,8.03
2018-12-05T15:21:26.861Z,7.67
2018-12-05T15:23:54.402Z,8.87
2018-12-05T15:26:21.993Z,8.23
2018-12-05T15:28:49.485Z,7.30
2018-12-05T15:31:16.997Z,7.43
2018-12-05T15:33:44.465Z,7.80
2018-12-05T15:36:11.967Z,7.27
2018-12-05T15:38:39.432Z,12.40
2018-12-05T15:41:06.914Z,9.40
2018-12-05T15:43:34.343Z,8.47
2018-12-05T15:46:01.786Z,8.33
2018-12-05T15:48:29.197Z,8.60
2018-12-05T15:50:56.687Z,8.77
2018-12-05T15:53:24.247Z,8.80
2018-12-05T15:55:52.001Z,8.17
2018-12-05T15:58:19.461Z,8.63
2018-12-05T16:00:46.888Z,8.70
2018-12-05T16:03:14.334Z,9.03
2018-12-05T16:05:41.905Z,8.90
2018-12-05T16:08:09.407Z,8.67
2018-12-05T16:10:36.874Z,8.47
2018-12-05T16:13:05.203Z,9.10
2018-12-05T16:15:33.113Z,8.83
2018-12-05T16:18:00.579Z,8.90
2018-12-05T16:20:28.054Z,9.07
2018-12-05T16:22:55.588Z,9.23
2018-12-05T16:25:23.358Z,9.47
2018-12-05T16:27:50.860Z,9.27
2018-12-05T16:30:18.535Z,9.97
2018-12-05T16:32:45.939Z,11.50
2018-12-05T16:35:13.412Z,8.90
2018-12-05T16:37:40.908Z,9.80
2018-12-05T16:40:08.587Z,9.13
2018-12-05T16:42:44.144Z,9.17
2018-12-05T16:45:11.751Z,9.53
2018-12-05T16:47:39.263Z,8.90
2018-12-05T16:50:07.062Z,8.67
2018-12-05T16:52:34.526Z,9.33
2018-12-05T16:55:01.962Z,8.90
2018-12-05T16:57:29.930Z,9.57
2018-12-05T16:59:57.638Z,8.80
2018-12-05T17:02:25.064Z,8.87
2018-12-05T17:04:52.610Z,8.67
2018-12-05T17:07:20.115Z,9.20
2018-12-05T17:09:47.560Z,9.37
2018-12-05T17:12:15.132Z,8.83
2018-12-05T17:14:42.640Z,9.47
2018-12-05T17:17:19.138Z,9.73
2018-12-05T17:19:46.604Z,9.40
2018-12-05T17:22:21.718Z,9.37
2018-12-05T17:24:49.204Z,9.53
2018-12-05T17:27:17.815Z,9.77
2018-12-05T17:29:45.553Z,9.10
2018-12-05T17:32:13.046Z,9.17
2018-12-05T17:34:40.590Z,9.87
2018-12-05T17:37:08.014Z,9.43
2018-12-05T17:39:35.428Z,9.13
2018-12-05T17:42:02.946Z,9.47
2018-12-05T17:44:30.384Z,10.20
2018-12-05T17:46:57.816Z,9.50
2018-12-05T17:49:25.339Z,9.80
2018-12-05T17:51:52.749Z,9.27
2018-12-05T17:54:20.177Z,9.17
2018-12-05T17:56:47.631Z,11.10
2018-12-05T17:59:15.004Z,11.47
2018-12-05T18:01:44.251Z,10.63
2018-12-05T18:04:11.847Z,9.70
2018-12-05T18:06:39.604Z,10.50
2018-12-05T18:09:08.128Z,9.80
2018-12-05T18:11:35.985Z,9.43
2018-12-05T18:14:03.734Z,9.97
2018-12-05T18:16:31.141Z,9.87
2018-12-05T18:18:58.554Z,12.03
2018-12-05T18:21:26.121Z,9.60
2018-12-05T18:23:53.577Z,10.23
2018-12-05T18:26:21.033Z,10.03
2018-12-05T18:28:48.478Z,10.17
2018-12-05T18:31:15.923Z,10.10
2018-12-05T18:33:44.288Z,10.10
2018-12-05T18:36:11.741Z,10.33
2018-12-05T18:38:39.197Z,9.70
2018-12-05T18:41:06.655Z,9.57
2018-12-05T18:43:34.078Z,8.63
2018-12-05T18:46:01.567Z,10.20
2018-12-05T18:51:18.878Z,9.13
2018-12-05T18:53:46.461Z,8.93
2018-12-05T18:56:14.093Z,9.80
2018-12-05T18:58:41.524Z,8.87
2018-12-05T19:01:12.983Z,10.50
2018-12-05T19:03:42.666Z,9.83
2018-12-05T19:06:16.927Z,9.30
2018-12-05T19:08:53.116Z,9.50
2018-12-05T19:11:26.369Z,9.73
2018-12-05T19:14:05.733Z,10.17
2018-12-05T19:19:38.889Z,10.17
2018-12-05T19:30:52.265Z,10.03
2018-12-05T19:33:21.012Z,10.07
2018-12-05T19:35:48.662Z,10.80
2018-12-05T19:41:13.129Z,10.43
2018-12-05T19:43:40.623Z,9.20
2018-12-05T19:46:08.609Z,10.97
2018-12-05T19:48:46.174Z,10.67
2018-12-05T19:51:16.078Z,10.30
2018-12-05T19:53:49.494Z,11.13
2018-12-05T19:56:21.301Z,10.97
2018-12-05T20:01:45.637Z,10.00
2018-12-05T20:04:13.258Z,9.43
2018-12-05T20:06:44.939Z,9.70
2018-12-05T20:12:05.857Z,10.03
2018-12-05T20:14:33.568Z,9.53
2018-12-05T20:20:17.934Z,9.60
2018-12-05T20:31:20.661Z,10.40
2018-12-05T20:33:54.032Z,10.37
2018-12-05T20:39:25.755Z,9.50
2018-12-05T20:44:46.929Z,9.07
2018-12-05T20:50:28.207Z,9.80
2018-12-05T21:04:47.786Z,9.80
2018-12-05T21:18:50.565Z,10.37
2018-12-05T21:21:18.117Z,10.80
2018-12-05T21:23:45.937Z,10.10
2018-12-05T21:26:13.494Z,10.83
2018-12-05T21:28:41.282Z,10.03
2018-12-05T21:31:08.882Z,11.13
2018-12-05T21:33:36.524Z,10.93
2018-12-05T21:36:04.215Z,9.17
2018-12-05T21:38:31.955Z,10.17
2018-12-05T21:40:59.630Z,10.00
2018-12-05T21:46:23.525Z,8.63
2018-12-05T21:48:51.342Z,8.67
2018-12-05T21:51:19.099Z,9.17
2018-12-05T21:53:46.739Z,8.70
2018-12-05T22:02:18.102Z,8.33
2018-12-05T22:04:51.947Z,9.03
2018-12-05T22:07:29.473Z,8.40
2018-12-05T22:09:58.388Z,9.27
2018-12-05T22:18:08.262Z,9.00
2018-12-05T22:20:35.975Z,8.90
2018-12-05T22:23:22.470Z,9.93
2018-12-05T22:29:52.538Z,10.77
2018-12-05T22:32:25.619Z,9.37
2018-12-05T22:34:57.125Z,9.63
2018-12-05T22:37:29.161Z,10.17
2018-12-05T22:40:01.008Z,9.83
2018-12-05T22:42:31.677Z,10.27
2018-12-05T22:45:04.955Z,10.60
2018-12-05T22:47:36.858Z,9.87
2018-12-05T22:50:15.244Z,9.73
2018-12-05T22:52:42.832Z,8.90
2018-12-05T22:55:10.353Z,9.83
2018-12-05T22:57:37.954Z,9.30
2018-12-05T23:00:08.400Z,10.27
2018-12-05T23:02:37.024Z,9.83
2018-12-05T23:05:05.013Z,9.50
2018-12-05T23:07:32.867Z,9.80
2018-12-05T23:10:00.426Z,8.70
2018-12-05T23:12:28.060Z,8.40
2018-12-05T23:14:55.912Z,9.60
2018-12-05T23:17:23.583Z,9.67
2018-12-05T23:19:51.131Z,8.93
2018-12-05T23:22:18.646Z,9.60
2018-12-05T23:24:46.306Z,9.40
2018-12-05T23:27:13.934Z,9.03
2018-12-05T23:29:41.572Z,9.43
2018-12-05T23:32:09.429Z,8.83
2018-12-05T23:34:37.050Z,9.53
2018-12-05T23:37:05.460Z,9.20
2018-12-05T23:39:33.079Z,8.67
2018-12-05T23:42:00.808Z,9.13
2018-12-05T23:44:28.386Z,8.73
2018-12-05T23:49:58.424Z,9.27
2018-12-05T23:52:25.964Z,8.87
2018-12-05T23:54:54.935Z,8.90
